Time;durP1;ratioP1;P1;durP2;ratioP2;P2;SDS_P1;SDS_P2;PMS_P1;PMS_P2;Temp;Humidity;BMP_temperature;BMP_pressure;BME280_temperature;BME280_humidity;BME280_pressure;Samples;Min_cycle;Max_cycle;Signal;HPM_P1;HPM_P2
2023/07/18 00:01:50;;;;;;;8.35;3.35;;;15.20;99.90;;;;;;5069270;28;20124;-81
2023/07/18 00:04:15;;;;;;;9.18;3.30;;;15.30;99.90;;;;;;5054099;28;20120;-80
2023/07/18 00:06:42;;;;;;;11.25;3.65;;;15.20;99.90;;;;;;5069075;28;20080;-80
2023/07/18 00:09:08;;;;;;;8.52;3.22;;;15.20;99.90;;;;;;5053619;28;20032;-80
2023/07/18 00:11:34;;;;;;;11.07;3.10;;;15.10;99.90;;;;;;5063963;28;20036;-80
2023/07/18 00:13:59;;;;;;;10.65;3.70;;;15.20;99.90;;;;;;5055607;28;20507;-79
2023/07/18 00:16:25;;;;;;;10.60;3.30;;;15.10;99.90;;;;;;5040864;28;20415;-80
2023/07/18 00:18:50;;;;;;;6.82;3.03;;;15.10;99.90;;;;;;5070924;28;20471;-79
2023/07/18 00:21:16;;;;;;;9.32;3.10;;;15.10;99.90;;;;;;5071215;28;20037;-81
2023/07/18 00:23:42;;;;;;;9.10;3.53;;;15.00;99.90;;;;;;5072023;28;20043;-80
2023/07/18 00:26:08;;;;;;;7.38;3.17;;;15.10;99.90;;;;;;5039973;28;20041;-80
2023/07/18 00:28:34;;;;;;;8.55;3.30;;;15.00;99.90;;;;;;5053240;28;20457;-80
2023/07/18 00:31:01;;;;;;;7.45;3.00;;;15.00;99.90;;;;;;5051850;28;20124;-80
2023/07/18 00:33:26;;;;;;;8.40;3.05;;;14.90;99.90;;;;;;5052024;28;20044;-80
2023/07/18 00:35:52;;;;;;;8.82;3.05;;;14.90;99.90;;;;;;5064142;28;20052;-81
2023/07/18 00:38:18;;;;;;;10.13;3.38;;;14.80;99.90;;;;;;5055256;28;20049;-80
2023/07/18 00:40:47;;;;;;;9.25;3.17;;;14.80;99.90;;;;;;5051896;28;20398;-80
2023/07/18 00:43:14;;;;;;;13.63;3.53;;;14.90;99.90;;;;;;5071163;28;20076;-80
2023/07/18 00:45:43;;;;;;;11.52;3.40;;;14.80;99.90;;;;;;5053727;28;20036;-80
2023/07/18 00:48:09;;;;;;;9.20;3.53;;;14.80;99.90;;;;;;5055150;28;20068;-80
2023/07/18 00:50:36;;;;;;;9.73;3.50;;;14.90;99.90;;;;;;5053200;28;20052;-80
2023/07/18 00:53:02;;;;;;;10.90;3.42;;;14.90;99.90;;;;;;5051268;28;20112;-81
2023/07/18 00:55:28;;;;;;;10.63;3.85;;;14.80;99.90;;;;;;5051814;28;20198;-81
2023/07/18 00:57:54;;;;;;;9.10;3.40;;;14.90;99.90;;;;;;5058320;28;20454;-81
2023/07/18 01:00:22;;;;;;;9.50;3.50;;;14.80;99.90;;;;;;5056941;28;20112;-81
2023/07/18 01:02:49;;;;;;;11.00;4.18;;;14.80;99.90;;;;;;5083620;28;20488;-81
2023/07/18 01:05:18;;;;;;;7.28;3.22;;;14.70;99.90;;;;;;5049149;28;20037;-81
2023/07/18 01:07:44;;;;;;;9.35;3.53;;;14.70;99.90;;;;;;5065427;28;20091;-81
2023/07/18 01:10:13;;;;;;;7.80;2.83;;;14.70;99.90;;;;;;5062945;28;20040;-81
2023/07/18 01:12:38;;;;;;;10.77;3.85;;;14.70;99.90;;;;;;5067978;28;20495;-80
2023/07/18 01:15:04;;;;;;;8.50;3.30;;;14.70;99.90;;;;;;5068083;28;20033;-81
2023/07/18 01:17:31;;;;;;;8.50;3.30;;;14.70;99.90;;;;;;5042286;28;20040;-82
2023/07/18 01:19:57;;;;;;;9.88;3.28;;;14.70;99.90;;;;;;5070411;28;20385;-82
2023/07/18 01:22:23;;;;;;;10.30;3.42;;;14.70;99.90;;;;;;5051834;28;20093;-81
2023/07/18 01:24:48;;;;;;;9.40;3.83;;;14.70;99.90;;;;;;5076104;28;20045;-81
2023/07/18 01:27:14;;;;;;;10.27;4.13;;;14.70;99.90;;;;;;5038159;28;20039;-80
2023/07/18 01:29:40;;;;;;;8.57;3.53;;;14.70;99.90;;;;;;5058773;28;20064;-81
2023/07/18 01:32:06;;;;;;;9.40;3.80;;;14.70;99.90;;;;;;5060841;28;20036;-81
2023/07/18 01:34:31;;;;;;;11.20;3.95;;;14.60;99.90;;;;;;5079720;28;20408;-81
2023/07/18 01:36:57;;;;;;;9.80;3.80;;;14.70;99.90;;;;;;5072848;28;20101;-80
2023/07/18 01:39:23;;;;;;;10.18;3.50;;;14.60;99.90;;;;;;5044468;28;20120;-81
2023/07/18 01:41:49;;;;;;;8.50;3.42;;;14.60;99.90;;;;;;5053037;28;20041;-81
2023/07/18 01:44:15;;;;;;;9.18;3.75;;;14.60;99.90;;;;;;5068538;28;20044;-81
2023/07/18 01:46:41;;;;;;;10.00;4.30;;;14.60;99.90;;;;;;5048108;28;20037;-81
2023/07/18 01:49:08;;;;;;;7.85;3.30;;;14.50;99.90;;;;;;5072117;28;20044;-80
2023/07/18 01:51:34;;;;;;;9.43;3.85;;;14.50;99.90;;;;;;5076469;28;20064;-80
2023/07/18 01:53:59;;;;;;;8.35;3.42;;;14.50;99.90;;;;;;5058312;28;20040;-80
2023/07/18 01:56:25;;;;;;;9.35;4.10;;;14.40;99.90;;;;;;5069328;28;20093;-80
2023/07/18 01:58:51;;;;;;;10.40;3.70;;;14.40;99.90;;;;;;5058436;28;20075;-81
2023/07/18 02:01:16;;;;;;;9.68;3.55;;;14.50;99.90;;;;;;5059631;28;20111;-81
2023/07/18 02:03:42;;;;;;;10.52;3.60;;;14.50;99.90;;;;;;5042769;28;20481;-80
2023/07/18 02:06:09;;;;;;;8.02;4.28;;;14.50;99.90;;;;;;5074220;28;20032;-80
2023/07/18 02:08:34;;;;;;;9.10;3.72;;;14.40;99.90;;;;;;5044335;28;20041;-80
2023/07/18 02:11:00;;;;;;;10.65;3.72;;;14.40;99.90;;;;;;5055495;28;20127;-80
2023/07/18 02:13:26;;;;;;;10.20;4.00;;;14.40;99.90;;;;;;5068334;28;20029;-81
2023/07/18 02:15:51;;;;;;;9.93;3.83;;;14.50;99.90;;;;;;5066673;28;20112;-80
2023/07/18 02:18:18;;;;;;;10.48;3.72;;;14.40;99.90;;;;;;5070693;28;20041;-80
2023/07/18 02:20:44;;;;;;;10.02;3.63;;;14.40;99.90;;;;;;5072434;28;20073;-80
2023/07/18 02:23:10;;;;;;;11.95;3.40;;;14.40;99.90;;;;;;5072230;28;20075;-80
2023/07/18 02:25:35;;;;;;;10.18;4.05;;;14.30;99.90;;;;;;5060249;28;20047;-80
2023/07/18 02:28:01;;;;;;;11.77;3.90;;;14.40;99.90;;;;;;5057257;28;20094;-80
2023/07/18 02:30:27;;;;;;;8.50;3.60;;;14.40;99.90;;;;;;5072231;28;20040;-81
2023/07/18 02:32:53;;;;;;;12.38;4.10;;;14.50;99.90;;;;;;5046453;28;20110;-80
2023/07/18 02:35:21;;;;;;;10.60;3.67;;;14.50;99.90;;;;;;5047546;28;20435;-80
2023/07/18 02:37:47;;;;;;;10.98;3.95;;;14.40;99.90;;;;;;5053878;28;20401;-81
2023/07/18 02:40:14;;;;;;;9.55;4.05;;;14.40;99.90;;;;;;5073807;28;20032;-80
2023/07/18 02:42:40;;;;;;;11.82;3.92;;;14.40;99.90;;;;;;5036665;28;20515;-80
2023/07/18 02:45:08;;;;;;;10.88;4.00;;;14.40;99.90;;;;;;5066560;28;20037;-80
2023/07/18 02:47:34;;;;;;;10.00;4.05;;;14.40;99.90;;;;;;5071945;28;20076;-80
2023/07/18 02:50:02;;;;;;;10.98;4.10;;;14.40;99.90;;;;;;5072736;28;20125;-80
2023/07/18 02:52:28;;;;;;;9.43;3.42;;;14.40;99.90;;;;;;5055996;28;20079;-80
2023/07/18 02:54:53;;;;;;;10.98;4.25;;;14.30;99.90;;;;;;5072941;28;20125;-81
2023/07/18 02:57:19;;;;;;;9.38;3.78;;;14.30;99.90;;;;;;5072527;28;20193;-81
2023/07/18 02:59:45;;;;;;;11.80;3.97;;;14.30;99.90;;;;;;5072935;28;20051;-80
2023/07/18 03:02:11;;;;;;;9.88;4.07;;;14.30;99.90;;;;;;5068555;28;20032;-81
2023/07/18 03:04:38;;;;;;;8.10;3.42;;;14.30;99.90;;;;;;5070732;28;20492;-80
2023/07/18 03:07:03;;;;;;;9.70;3.85;;;14.30;99.90;;;;;;5057091;28;20549;-80
2023/07/18 03:09:33;;;;;;;12.25;4.35;;;14.30;99.90;;;;;;5042530;28;20128;-80
2023/07/18 03:11:58;;;;;;;9.25;4.05;;;14.30;99.90;;;;;;5056765;28;20047;-80
2023/07/18 03:14:24;;;;;;;10.27;4.13;;;14.30;99.90;;;;;;5067731;28;20115;-81
2023/07/18 03:16:50;;;;;;;9.27;3.85;;;14.30;99.90;;;;;;5052495;28;20403;-80
2023/07/18 03:19:15;;;;;;;10.38;4.03;;;14.30;99.90;;;;;;5070679;28;20045;-80
2023/07/18 03:21:41;;;;;;;11.63;4.28;;;14.20;99.90;;;;;;5074345;28;20157;-81
2023/07/18 03:24:07;;;;;;;9.32;3.72;;;14.30;99.90;;;;;;5065499;28;20120;-81
2023/07/18 03:26:39;;;;;;;9.95;3.90;;;14.20;99.90;;;;;;5069130;28;20049;-81
2023/07/18 03:29:05;;;;;;;8.80;3.42;;;14.30;99.90;;;;;;5071957;28;20191;-81
2023/07/18 03:31:32;;;;;;;10.65;3.80;;;14.30;99.90;;;;;;5068443;28;20128;-81
2023/07/18 03:33:57;;;;;;;12.10;3.80;;;14.20;99.90;;;;;;5056512;28;20048;-81
2023/07/18 03:36:23;;;;;;;10.30;4.10;;;14.20;99.90;;;;;;5058311;28;20098;-81
2023/07/18 03:38:49;;;;;;;10.30;4.35;;;14.20;99.90;;;;;;5050924;28;20455;-81
2023/07/18 03:41:14;;;;;;;9.57;3.92;;;14.20;99.90;;;;;;5069762;28;20112;-81
2023/07/18 03:43:40;;;;;;;10.18;4.20;;;14.20;99.90;;;;;;5054127;28;20487;-81
2023/07/18 03:46:05;;;;;;;9.98;3.70;;;14.20;99.90;;;;;;5059484;28;20465;-81
2023/07/18 03:48:31;;;;;;;10.38;4.10;;;14.20;99.90;;;;;;5044752;28;20037;-81
2023/07/18 03:50:56;;;;;;;8.20;3.70;;;14.20;99.90;;;;;;5067542;28;20090;-81
2023/07/18 03:53:22;;;;;;;10.23;4.45;;;14.20;99.90;;;;;;5065611;28;20044;-81
2023/07/18 03:55:48;;;;;;;10.90;4.20;;;14.20;99.90;;;;;;5039846;28;20485;-81
2023/07/18 03:58:14;;;;;;;10.88;4.10;;;14.20;99.90;;;;;;5048429;28;20067;-81
2023/07/18 04:00:39;;;;;;;10.95;4.30;;;14.20;99.90;;;;;;5060420;28;20064;-81
2023/07/18 04:03:05;;;;;;;10.35;4.15;;;14.10;99.90;;;;;;5064837;28;20058;-81
2023/07/18 04:05:30;;;;;;;10.95;3.97;;;14.10;99.90;;;;;;5066634;28;20040;-81
2023/07/18 04:07:56;;;;;;;11.63;4.35;;;14.10;99.90;;;;;;5047334;28;20060;-81
2023/07/18 04:10:22;;;;;;;9.55;3.70;;;14.20;99.90;;;;;;5069889;28;20028;-81
2023/07/18 04:12:47;;;;;;;11.90;4.07;;;14.10;99.90;;;;;;5042385;28;20480;-81
2023/07/18 04:15:14;;;;;;;10.75;4.15;;;14.10;99.90;;;;;;5067086;28;20072;-81
2023/07/18 04:17:40;;;;;;;11.40;3.80;;;14.10;99.90;;;;;;5047567;28;20123;-81
2023/07/18 04:20:07;;;;;;;11.13;4.22;;;14.10;99.90;;;;;;5050273;28;20515;-81
2023/07/18 04:22:32;;;;;;;9.50;3.95;;;14.10;99.90;;;;;;5083455;28;20040;-81
2023/07/18 04:24:58;;;;;;;12.75;4.20;;;14.10;99.90;;;;;;5044617;28;20396;-81
2023/07/18 04:27:26;;;;;;;10.18;4.32;;;14.10;99.90;;;;;;5074947;28;20108;-81
2023/07/18 04:29:52;;;;;;;8.40;3.88;;;14.20;99.90;;;;;;5065003;28;20146;-81
2023/07/18 04:32:18;;;;;;;11.25;4.60;;;14.10;99.90;;;;;;5047903;28;20040;-81
2023/07/18 04:34:44;;;;;;;9.25;3.92;;;14.10;99.90;;;;;;5056924;28;20036;-81
2023/07/18 04:37:09;;;;;;;11.13;3.95;;;14.20;99.90;;;;;;5044116;28;20496;-81
2023/07/18 04:39:35;;;;;;;13.60;4.50;;;14.20;99.90;;;;;;5058463;28;20052;-81
2023/07/18 04:42:01;;;;;;;10.98;3.65;;;14.20;99.90;;;;;;5039029;28;20484;-81
2023/07/18 04:44:27;;;;;;;8.80;4.13;;;14.20;99.90;;;;;;5057763;28;20374;-81
2023/07/18 04:46:52;;;;;;;9.93;4.10;;;14.20;99.90;;;;;;5042375;28;20044;-81
2023/07/18 04:49:19;;;;;;;10.23;3.88;;;14.20;99.90;;;;;;5063999;28;20044;-81
2023/07/18 04:51:44;;;;;;;10.82;3.72;;;14.20;99.90;;;;;;5059342;28;20505;-81
2023/07/18 04:54:10;;;;;;;9.07;3.95;;;14.20;99.90;;;;;;5054500;28;20083;-81
2023/07/18 04:56:36;;;;;;;9.82;3.75;;;14.30;99.90;;;;;;5064124;28;20507;-81
2023/07/18 04:59:01;;;;;;;9.18;3.78;;;14.30;99.90;;;;;;5069493;28;20040;-81
2023/07/18 05:01:28;;;;;;;9.93;3.58;;;14.30;99.90;;;;;;5067448;28;20113;-81
2023/07/18 05:03:54;;;;;;;8.77;4.22;;;14.30;99.90;;;;;;5059530;28;20059;-81
2023/07/18 05:06:20;;;;;;;11.73;4.55;;;14.40;99.90;;;;;;5063248;28;20028;-81
2023/07/18 05:08:45;;;;;;;10.80;4.20;;;14.30;99.90;;;;;;5068897;28;20067;-81
2023/07/18 05:11:11;;;;;;;12.70;3.97;;;14.40;99.90;;;;;;5068969;28;20480;-81
2023/07/18 05:13:37;;;;;;;11.73;4.10;;;14.40;99.90;;;;;;5044096;28;20386;-81
2023/07/18 05:16:02;;;;;;;13.10;4.47;;;14.50;99.90;;;;;;5062328;28;20044;-80
2023/07/18 05:18:29;;;;;;;11.95;4.70;;;14.50;99.90;;;;;;5064526;28;20044;-81
2023/07/18 05:20:56;;;;;;;14.32;4.63;;;14.50;99.90;;;;;;5062954;28;20037;-80
2023/07/18 05:23:22;;;;;;;11.38;4.63;;;14.60;99.90;;;;;;5055061;28;20063;-80
2023/07/18 05:25:48;;;;;;;12.98;4.28;;;14.70;99.90;;;;;;5066222;28;20492;-81
2023/07/18 05:28:14;;;;;;;12.68;4.95;;;14.80;99.90;;;;;;5053105;28;20072;-80
2023/07/18 05:30:39;;;;;;;11.63;3.50;;;14.80;99.90;;;;;;5052235;28;20117;-81
2023/07/18 05:33:05;;;;;;;9.52;4.20;;;14.80;99.90;;;;;;5055733;28;20041;-80
2023/07/18 05:35:30;;;;;;;10.20;4.50;;;14.90;99.90;;;;;;5061669;28;20036;-80
2023/07/18 05:37:56;;;;;;;11.43;4.38;;;15.00;99.90;;;;;;5063966;28;20037;-80
2023/07/18 05:40:22;;;;;;;12.88;5.05;;;15.00;99.90;;;;;;5055292;28;20404;-81
2023/07/18 05:42:47;;;;;;;14.18;4.00;;;15.00;99.90;;;;;;5067654;28;20036;-80
2023/07/18 05:45:13;;;;;;;10.98;4.45;;;15.10;99.90;;;;;;5044483;28;20569;-80
2023/07/18 05:47:39;;;;;;;10.77;4.38;;;15.10;99.90;;;;;;5057610;28;20040;-80
2023/07/18 05:50:05;;;;;;;12.27;5.00;;;15.20;99.90;;;;;;5063961;28;20598;-80
2023/07/18 05:52:31;;;;;;;13.77;4.45;;;15.10;99.90;;;;;;5082059;28;20059;-80
2023/07/18 05:54:57;;;;;;;11.90;4.18;;;15.10;99.90;;;;;;5054844;28;20464;-80
2023/07/18 05:57:23;;;;;;;12.10;4.88;;;15.10;99.90;;;;;;5065708;28;20064;-80
2023/07/18 05:59:48;;;;;;;12.35;4.65;;;15.20;99.90;;;;;;5071054;28;20040;-81
2023/07/18 06:02:15;;;;;;;13.93;4.53;;;15.20;99.90;;;;;;5071917;28;20075;-80
2023/07/18 06:04:40;;;;;;;16.38;4.95;;;15.30;99.90;;;;;;5054807;28;20036;-80
2023/07/18 06:07:06;;;;;;;14.35;4.30;;;15.30;99.90;;;;;;5075464;28;20480;-80
2023/07/18 06:09:32;;;;;;;11.10;4.45;;;15.50;99.90;;;;;;5073737;28;20033;-80
2023/07/18 06:11:58;;;;;;;12.65;4.80;;;15.60;99.90;;;;;;5064728;28;20037;-81
2023/07/18 06:14:24;;;;;;;12.13;4.45;;;15.70;99.90;;;;;;5070252;28;20040;-80
2023/07/18 06:16:49;;;;;;;12.38;4.47;;;15.80;99.90;;;;;;5050540;28;20055;-80
2023/07/18 06:19:15;;;;;;;12.48;4.10;;;15.90;99.90;;;;;;5074887;28;20091;-80
2023/07/18 06:21:41;;;;;;;12.07;3.97;;;16.00;99.90;;;;;;5058038;28;20044;-81
2023/07/18 06:24:07;;;;;;;14.13;4.70;;;16.10;99.90;;;;;;5074543;28;20028;-81
2023/07/18 06:26:32;;;;;;;12.68;4.53;;;16.10;99.90;;;;;;5060827;28;20108;-81
2023/07/18 06:28:58;;;;;;;14.25;4.30;;;16.20;99.90;;;;;;5071975;28;20056;-81
2023/07/18 06:31:24;;;;;;;15.75;4.15;;;16.20;99.90;;;;;;5057540;28;20040;-81
2023/07/18 06:33:50;;;;;;;16.08;4.75;;;16.40;99.90;;;;;;5073203;28;20033;-80
2023/07/18 06:36:16;;;;;;;12.75;4.50;;;16.50;99.90;;;;;;5057367;28;20488;-80
2023/07/18 06:38:42;;;;;;;13.95;4.18;;;16.60;99.90;;;;;;5075275;28;20074;-80
2023/07/18 06:41:08;;;;;;;12.60;3.83;;;16.60;99.90;;;;;;5075585;28;20037;-80
2023/07/18 06:43:33;;;;;;;15.25;4.15;;;16.60;99.90;;;;;;5074552;28;20407;-80
2023/07/18 06:45:59;;;;;;;11.70;3.85;;;16.60;99.90;;;;;;5073836;28;20044;-80
2023/07/18 06:48:24;;;;;;;11.10;4.05;;;16.60;99.90;;;;;;5057295;28;20094;-80
2023/07/18 06:50:53;;;;;;;12.32;4.03;;;16.70;99.90;;;;;;5074012;28;20042;-81
2023/07/18 06:53:20;;;;;;;14.40;3.90;;;16.70;99.90;;;;;;5072831;28;20431;-80
2023/07/18 06:55:48;;;;;;;12.98;3.58;;;16.70;99.90;;;;;;5073749;28;20052;-80
2023/07/18 06:58:14;;;;;;;13.70;3.97;;;16.70;99.90;;;;;;5057414;28;20419;-80
2023/07/18 07:00:40;;;;;;;12.02;4.72;;;16.60;99.90;;;;;;5073699;28;20039;-80
2023/07/18 07:03:09;;;;;;;12.02;3.78;;;16.60;99.90;;;;;;5056998;28;20098;-80
2023/07/18 07:05:42;;;;;;;12.15;3.78;;;16.70;99.90;;;;;;5073494;28;20290;-81
2023/07/18 07:08:12;;;;;;;14.43;4.05;;;16.80;99.90;;;;;;5073653;28;20037;-81
2023/07/18 07:10:41;;;;;;;12.57;3.75;;;16.90;99.90;;;;;;5057065;28;20028;-81
2023/07/18 07:13:08;;;;;;;11.40;3.53;;;16.90;99.90;;;;;;5073515;28;20048;-81
2023/07/18 07:15:34;;;;;;;12.02;3.78;;;17.00;99.90;;;;;;5056709;28;20075;-80
2023/07/18 07:18:00;;;;;;;15.80;4.05;;;17.00;99.90;;;;;;5072173;28;20468;-80
2023/07/18 07:20:28;;;;;;;12.45;3.75;;;17.00;99.90;;;;;;5055512;28;20036;-80
2023/07/18 07:22:54;;;;;;;14.43;3.88;;;17.10;99.90;;;;;;5056665;28;20044;-80
2023/07/18 07:25:20;;;;;;;13.32;3.97;;;17.10;99.90;;;;;;5056520;28;20150;-80
2023/07/18 07:27:46;;;;;;;11.65;3.55;;;17.10;99.90;;;;;;5056399;28;20161;-80
2023/07/18 07:30:17;;;;;;;11.30;3.40;;;17.10;99.90;;;;;;5073178;28;20040;-80
2023/07/18 07:32:47;;;;;;;11.48;3.30;;;17.20;99.90;;;;;;5073240;28;20113;-80
2023/07/18 07:35:16;;;;;;;10.75;3.72;;;17.30;99.90;;;;;;5073249;28;20037;-80
2023/07/18 07:37:42;;;;;;;13.38;3.60;;;17.30;99.90;;;;;;5073276;28;20089;-80
2023/07/18 07:40:11;;;;;;;11.60;3.35;;;17.30;99.90;;;;;;5056289;28;20127;-80
2023/07/18 07:42:41;;;;;;;15.15;4.43;;;17.40;99.90;;;;;;5052654;28;20048;-81
2023/07/18 07:45:07;;;;;;;12.00;3.78;;;17.40;99.90;;;;;;5055976;28;20496;-80
2023/07/18 07:47:34;;;;;;;16.52;4.05;;;17.30;99.90;;;;;;5068273;28;20043;-80
2023/07/18 07:50:04;;;;;;;13.45;3.78;;;17.30;99.90;;;;;;5059446;28;20033;-80
2023/07/18 07:52:29;;;;;;;12.55;4.30;;;17.50;99.90;;;;;;5057824;28;20044;-80
2023/07/18 07:54:55;;;;;;;15.35;3.70;;;17.70;99.90;;;;;;5052747;28;20055;-80
2023/07/18 07:57:21;;;;;;;10.77;3.58;;;17.90;99.90;;;;;;5036168;28;20405;-80
2023/07/18 07:59:48;;;;;;;13.43;4.60;;;18.10;99.90;;;;;;5036279;28;20048;-81
2023/07/18 08:02:14;;;;;;;12.75;3.58;;;18.30;99.90;;;;;;5038174;28;20040;-81
2023/07/18 08:04:41;;;;;;;11.75;3.88;;;18.30;99.90;;;;;;5051997;28;20040;-81
2023/07/18 08:07:10;;;;;;;9.65;3.20;;;18.40;99.90;;;;;;5069282;28;20406;-81
2023/07/18 08:09:36;;;;;;;13.30;4.45;;;18.60;99.90;;;;;;5052650;28;20044;-81
2023/07/18 08:12:03;;;;;;;11.45;4.15;;;18.60;99.90;;;;;;5053282;28;20040;-81
2023/07/18 08:14:29;;;;;;;14.02;3.90;;;18.70;99.90;;;;;;5066499;28;20044;-81
2023/07/18 08:16:55;;;;;;;16.50;4.00;;;18.80;99.90;;;;;;5059885;28;20037;-82
2023/07/18 08:19:22;;;;;;;11.75;3.92;;;18.90;99.90;;;;;;5067516;28;20098;-81
2023/07/18 08:21:48;;;;;;;13.68;3.70;;;19.10;99.90;;;;;;5072439;28;20119;-82
2023/07/18 08:24:15;;;;;;;11.95;3.78;;;19.10;99.90;;;;;;5055927;28;20041;-81
2023/07/18 08:26:40;;;;;;;13.27;3.70;;;19.10;99.90;;;;;;5052076;28;20124;-82
2023/07/18 08:29:06;;;;;;;11.15;3.70;;;19.20;99.90;;;;;;5035176;28;20128;-82
2023/07/18 08:31:32;;;;;;;12.02;3.67;;;19.40;99.90;;;;;;5052110;28;20041;-81
2023/07/18 08:33:57;;;;;;;12.32;3.47;;;19.50;99.90;;;;;;5062384;28;20032;-81
2023/07/18 08:36:23;;;;;;;16.33;4.70;;;19.50;99.90;;;;;;5071941;28;20119;-81
2023/07/18 08:38:51;;;;;;;15.43;4.25;;;19.50;99.90;;;;;;5071286;28;20033;-81
2023/07/18 08:41:20;;;;;;;11.75;3.70;;;19.60;99.90;;;;;;5053254;28;20037;-81
2023/07/18 08:43:49;;;;;;;14.60;3.65;;;19.70;99.90;;;;;;5052916;28;20044;-81
2023/07/18 08:46:16;;;;;;;15.38;3.92;;;19.70;99.90;;;;;;5055151;28;20058;-81
2023/07/18 08:48:43;;;;;;;11.63;3.72;;;19.60;99.90;;;;;;5062148;28;20056;-81
2023/07/18 08:51:10;;;;;;;15.43;4.03;;;19.60;99.90;;;;;;5088695;28;20048;-82
2023/07/18 08:53:37;;;;;;;12.38;3.75;;;19.60;99.90;;;;;;5071099;28;20033;-81
2023/07/18 08:56:03;;;;;;;14.93;4.60;;;19.70;99.90;;;;;;5072999;28;20051;-81
2023/07/18 08:58:29;;;;;;;12.55;3.63;;;19.80;99.90;;;;;;5057842;28;20397;-81
2023/07/18 09:00:54;;;;;;;13.90;3.60;;;19.90;99.90;;;;;;5051079;28;20528;-81
2023/07/18 09:03:20;;;;;;;12.90;3.42;;;20.00;99.90;;;;;;5051708;28;20041;-82
2023/07/18 09:05:46;;;;;;;12.88;3.60;;;20.10;99.90;;;;;;5068020;28;20044;-80
2023/07/18 09:08:11;;;;;;;12.10;3.65;;;20.20;99.90;;;;;;5062926;28;20033;-82
2023/07/18 09:10:37;;;;;;;9.85;3.53;;;20.20;99.90;;;;;;5045382;28;20033;-81
2023/07/18 09:13:04;;;;;;;10.73;3.38;;;20.20;99.90;;;;;;5058644;28;20115;-81
2023/07/18 09:15:33;;;;;;;9.77;3.00;;;20.20;99.90;;;;;;5073641;28;20048;-81
2023/07/18 09:18:02;;;;;;;11.75;3.70;;;20.10;99.90;;;;;;5073462;28;20044;-81
2023/07/18 09:20:30;;;;;;;12.32;3.85;;;20.10;99.90;;;;;;5088627;28;20052;-81
2023/07/18 09:22:57;;;;;;;11.30;3.85;;;20.20;99.90;;;;;;5039194;28;20128;-81
2023/07/18 09:25:24;;;;;;;11.05;3.42;;;20.20;99.90;;;;;;5060997;28;20044;-81
2023/07/18 09:27:54;;;;;;;12.50;3.33;;;20.20;99.90;;;;;;5054901;28;20103;-81
2023/07/18 09:30:27;;;;;;;11.95;3.00;;;20.20;99.90;;;;;;5069845;28;20036;-82
2023/07/18 09:32:54;;;;;;;12.25;2.95;;;20.30;99.90;;;;;;5073709;28;20464;-81
2023/07/18 09:35:19;;;;;;;15.60;3.92;;;20.20;99.90;;;;;;5058360;28;20044;-81
2023/07/18 09:37:46;;;;;;;11.82;3.38;;;20.10;99.90;;;;;;5064715;28;20045;-81
2023/07/18 09:40:14;;;;;;;13.70;3.25;;;20.00;99.90;;;;;;5062981;28;20041;-81
2023/07/18 09:42:41;;;;;;;9.82;2.90;;;19.80;99.90;;;;;;5074815;28;20492;-80
2023/07/18 09:45:07;;;;;;;12.75;3.00;;;19.80;99.90;;;;;;5069712;28;20086;-81
2023/07/18 09:47:34;;;;;;;11.38;2.88;;;19.70;99.90;;;;;;5058273;28;20436;-80
2023/07/18 09:49:59;;;;;;;11.40;2.58;;;19.70;99.90;;;;;;5043875;28;20536;-81
2023/07/18 09:52:27;;;;;;;7.82;2.50;;;19.70;99.90;;;;;;5056044;28;20120;-81
2023/07/18 09:54:53;;;;;;;13.07;2.88;;;19.70;99.90;;;;;;5055845;28;20094;-80
2023/07/18 09:57:19;;;;;;;10.90;2.60;;;19.80;99.90;;;;;;5057851;28;20033;-81
2023/07/18 09:59:48;;;;;;;9.88;2.65;;;19.90;99.90;;;;;;5073973;28;20048;-81
2023/07/18 10:02:15;;;;;;;10.57;2.78;;;19.80;99.90;;;;;;5064613;28;20507;-80
2023/07/18 10:04:41;;;;;;;11.02;3.00;;;19.90;99.90;;;;;;5056539;28;20051;-81
2023/07/18 10:07:11;;;;;;;10.85;2.60;;;19.80;99.90;;;;;;5040451;28;20033;-81
2023/07/18 10:09:37;;;;;;;10.90;2.97;;;19.90;99.90;;;;;;5069744;28;20036;-80
2023/07/18 10:12:02;;;;;;;11.68;2.42;;;19.90;99.90;;;;;;5065986;28;20068;-80
2023/07/18 10:14:29;;;;;;;12.57;2.80;;;20.10;99.90;;;;;;5058755;28;20091;-81
2023/07/18 10:16:58;;;;;;;8.25;2.20;;;20.30;99.90;;;;;;5044467;28;20087;-81
2023/07/18 10:19:24;;;;;;;7.47;2.10;;;20.40;99.90;;;;;;5057886;28;20516;-80
2023/07/18 10:21:56;;;;;;;9.20;2.63;;;20.60;99.90;;;;;;5060584;28;20037;-81
2023/07/18 10:24:23;;;;;;;11.75;2.47;;;20.70;99.90;;;;;;5074138;28;20419;-81
2023/07/18 10:26:51;;;;;;;8.52;2.10;;;20.70;99.90;;;;;;5056964;28;20041;-81
2023/07/18 10:29:17;;;;;;;9.30;2.60;;;20.60;99.90;;;;;;5069947;28;20135;-81
2023/07/18 10:31:44;;;;;;;13.02;2.20;;;20.60;99.90;;;;;;5056475;28;20174;-81
2023/07/18 10:34:16;;;;;;;10.05;2.13;;;20.60;99.90;;;;;;5070272;28;20489;-81
2023/07/18 10:37:00;;;;;;;7.68;1.90;;;20.70;99.90;;;;;;5057772;28;20044;-81
2023/07/18 10:39:50;;;;;;;6.70;1.75;;;20.80;99.90;;;;;;5089131;28;20044;-81
2023/07/18 10:42:25;;;;;;;9.52;2.63;;;21.00;99.90;;;;;;5057041;28;20090;-81
2023/07/18 10:45:02;;;;;;;9.27;1.73;;;21.00;99.90;;;;;;5068147;28;20132;-81
2023/07/18 10:47:28;;;;;;;8.13;1.85;;;21.00;99.90;;;;;;5067799;28;20029;-81
2023/07/18 10:49:56;;;;;;;7.22;1.58;;;21.00;99.90;;;;;;5051848;28;20511;-81
2023/07/18 10:52:22;;;;;;;8.60;1.90;;;21.00;99.90;;;;;;5055653;28;20040;-81
2023/07/18 10:54:53;;;;;;;6.53;1.60;;;21.10;99.90;;;;;;5074089;28;20131;-81
2023/07/18 10:57:33;;;;;;;6.70;1.40;;;21.20;99.90;;;;;;5072112;28;20033;-81
2023/07/18 11:00:00;;;;;;;6.85;1.70;;;21.30;99.90;;;;;;5062876;28;20344;-81
2023/07/18 11:02:27;;;;;;;7.47;1.67;;;21.30;99.90;;;;;;5053427;28;20056;-81
2023/07/18 11:04:53;;;;;;;6.38;1.70;;;21.40;99.90;;;;;;5072017;28;20064;-81
2023/07/18 11:07:31;;;;;;;5.63;1.20;;;21.50;99.90;;;;;;5046575;28;20503;-81
2023/07/18 11:09:57;;;;;;;5.82;1.48;;;21.50;99.90;;;;;;5049441;28;20047;-81
2023/07/18 11:12:23;;;;;;;7.18;1.50;;;21.60;99.90;;;;;;5072198;28;20032;-81
2023/07/18 11:14:48;;;;;;;6.38;1.60;;;21.80;99.90;;;;;;5072374;28;20036;-81
2023/07/18 11:17:17;;;;;;;5.90;1.58;;;21.80;99.90;;;;;;5056215;28;20036;-80
2023/07/18 11:19:43;;;;;;;7.03;1.38;;;21.90;99.90;;;;;;5073716;28;20055;-81
2023/07/18 11:22:13;;;;;;;8.20;1.73;;;21.90;99.90;;;;;;5058437;28;20071;-81
2023/07/18 11:24:42;;;;;;;6.25;1.50;;;21.90;99.90;;;;;;5072953;28;20068;-82
2023/07/18 11:27:22;;;;;;;6.60;1.40;;;21.90;99.90;;;;;;5053892;28;20059;-81
2023/07/18 11:30:03;;;;;;;6.35;1.50;;;22.00;99.90;;;;;;5042450;28;20045;-81
2023/07/18 11:32:40;;;;;;;3.95;1.17;;;22.10;99.90;;;;;;5058747;28;20033;-81
2023/07/18 11:35:20;;;;;;;5.10;1.30;;;22.20;99.90;;;;;;5069313;28;20039;-81
2023/07/18 11:37:46;;;;;;;5.82;1.30;;;22.10;99.90;;;;;;5075930;28;20150;-81
2023/07/18 11:40:21;;;;;;;5.47;1.42;;;21.90;99.90;;;;;;5065391;28;20496;-82
2023/07/18 11:42:52;;;;;;;4.60;1.23;;;21.90;99.90;;;;;;5069567;28;20122;-80
2023/07/18 11:45:22;;;;;;;4.43;1.30;;;21.60;99.90;;;;;;5035867;28;20147;-81
2023/07/18 11:47:52;;;;;;;8.07;1.52;;;21.60;99.90;;;;;;5052435;28;20388;-81
2023/07/18 11:50:18;;;;;;;4.20;1.15;;;21.30;99.90;;;;;;5051964;28;20029;-81
2023/07/18 11:52:49;;;;;;;4.85;1.35;;;21.20;99.90;;;;;;5040044;28;20119;-81
2023/07/18 11:55:16;;;;;;;6.25;1.42;;;21.20;99.90;;;;;;5069349;28;20052;-81
2023/07/18 11:57:42;;;;;;;8.63;1.40;;;21.10;99.90;;;;;;5054456;28;20062;-81
2023/07/18 12:00:09;;;;;;;5.05;1.30;;;21.00;99.90;;;;;;5053352;28;20433;-81
2023/07/18 12:02:35;;;;;;;6.65;1.50;;;20.90;99.90;;;;;;5069617;28;20044;-81
2023/07/18 12:05:00;;;;;;;4.75;1.20;;;20.80;99.90;;;;;;5059900;28;20392;-81
2023/07/18 12:07:26;;;;;;;3.85;1.20;;;20.70;99.90;;;;;;5059764;28;20045;-81
2023/07/18 12:09:52;;;;;;;6.20;1.30;;;20.60;99.90;;;;;;5052234;28;20044;-81
2023/07/18 12:12:19;;;;;;;6.28;1.50;;;20.60;99.90;;;;;;5035417;28;20037;-81
2023/07/18 12:14:44;;;;;;;5.13;1.40;;;20.50;99.90;;;;;;5085719;28;20497;-81
2023/07/18 12:17:11;;;;;;;5.95;1.92;;;20.50;99.90;;;;;;5073191;28;20051;-81
2023/07/18 12:19:36;;;;;;;2.92;1.20;;;20.60;99.90;;;;;;5037960;28;20558;-81
2023/07/18 12:22:02;;;;;;;7.85;2.28;;;20.60;99.90;;;;;;5054925;28;20036;-81
2023/07/18 12:24:27;;;;;;;5.20;1.42;;;20.60;99.90;;;;;;5069022;28;20119;-81
2023/07/18 12:26:53;;;;;;;7.22;1.80;;;20.70;99.90;;;;;;5071907;28;20593;-81
2023/07/18 12:29:19;;;;;;;7.32;1.80;;;20.80;99.90;;;;;;5047649;28;20041;-81
2023/07/18 12:31:51;;;;;;;5.53;1.60;;;20.80;99.90;;;;;;5053133;28;20056;-81
2023/07/18 12:34:20;;;;;;;10.55;2.28;;;20.90;99.90;;;;;;5063862;28;20037;-81
2023/07/18 12:36:45;;;;;;;9.57;1.73;;;20.80;99.90;;;;;;5055405;28;20048;-81
2023/07/18 12:39:12;;;;;;;9.15;2.08;;;20.80;99.90;;;;;;5052217;28;20406;-81